createdAt,value
2023-01-10T00:00:49.619Z,99679.97
2023-01-10T00:03:16.625Z,99684.38
2023-01-10T00:05:43.693Z,99686.13
2023-01-10T00:08:16.346Z,99677.25
2023-01-10T00:10:43.270Z,99684.28
2023-01-10T00:13:24.494Z,99688.66
2023-01-10T00:15:54.279Z,99679.84
2023-01-10T00:18:22.915Z,99684.25
2023-01-10T00:20:50.273Z,99681.50
2023-01-10T00:23:18.583Z,99691.97
2023-01-10T00:25:46.289Z,99698.91
2023-01-10T00:28:19.507Z,99707.75
2023-01-10T00:30:55.738Z,99702.41
2023-01-10T00:33:23.067Z,99710.16
2023-01-10T00:35:50.089Z,99706.66
2023-01-10T00:38:17.287Z,99714.50
2023-01-10T00:40:45.892Z,99719.69
2023-01-10T00:43:31.887Z,99731.88
2023-01-10T00:45:58.882Z,99728.28
2023-01-10T00:48:26.219Z,99749.28
2023-01-10T00:50:53.154Z,99757.22
2023-01-10T00:53:20.913Z,99749.25
2023-01-10T00:55:48.080Z,99750.88
2023-01-10T00:58:16.790Z,99757.84
2023-01-10T01:00:49.796Z,99766.44
2023-01-10T01:03:20.913Z,99771.75
2023-01-10T01:05:49.002Z,99766.31
2023-01-10T01:08:19.029Z,99780.22
2023-01-10T01:10:47.542Z,99782.78
2023-01-10T01:13:19.359Z,99794.22
2023-01-10T01:15:47.089Z,99794.88
2023-01-10T01:18:19.486Z,99802.53
2023-01-10T01:20:48.092Z,99813.94
2023-01-10T01:23:15.950Z,99834.97
2023-01-10T01:25:43.068Z,99849.00
2023-01-10T01:28:13.122Z,99855.44
2023-01-10T01:30:40.333Z,99860.88
2023-01-10T01:33:07.902Z,99856.53
2023-01-10T01:35:38.058Z,99839.16
2023-01-10T01:38:05.565Z,99839.31
2023-01-10T01:40:33.121Z,99838.44
2023-01-10T01:43:00.516Z,99843.75
2023-01-10T01:45:37.202Z,99829.53
2023-01-10T01:48:24.335Z,99835.78
2023-01-10T01:51:05.601Z,99842.06
2023-01-10T01:53:49.350Z,99817.53
2023-01-10T01:56:24.966Z,99810.56
2023-01-10T01:59:21.238Z,99808.72
2023-01-10T02:01:53.609Z,99834.09
2023-01-10T02:04:27.407Z,99834.00
2023-01-10T02:06:57.584Z,99847.97
2023-01-10T02:10:15.819Z,99851.53
2023-01-10T02:12:45.432Z,99852.53
2023-01-10T02:15:15.620Z,99828.13
2023-01-10T02:17:42.784Z,99825.16
2023-01-10T02:20:13.042Z,99832.97
2023-01-10T02:23:37.095Z,99829.47
2023-01-10T02:26:48.575Z,99847.72
2023-01-10T02:29:52.961Z,99839.53
2023-01-10T02:32:56.963Z,99846.47
2023-01-10T02:36:04.893Z,99874.75
2023-01-10T02:38:40.781Z,99877.38
2023-01-10T02:41:35.366Z,99885.16
2023-01-10T02:44:17.988Z,99881.31
2023-01-10T02:46:47.171Z,99891.72
2023-01-10T02:49:14.263Z,99887.13
2023-01-10T02:51:41.542Z,99890.41
2023-01-10T02:54:20.942Z,99901.59
2023-01-10T02:57:08.953Z,99897.53
2023-01-10T02:59:57.502Z,99928.16
2023-01-10T03:02:42.582Z,99924.59
2023-01-10T03:05:24.009Z,99930.59
2023-01-10T03:08:17.031Z,99932.00
2023-01-10T03:10:58.273Z,99949.34
2023-01-10T03:13:36.730Z,99972.31
2023-01-10T03:16:08.469Z,99956.13
2023-01-10T03:19:10.637Z,99995.84
2023-01-10T03:21:40.176Z,100009.28
2023-01-10T03:24:16.129Z,99999.16
2023-01-10T03:27:03.391Z,100005.03
2023-01-10T03:29:45.835Z,100027.19
2023-01-10T03:32:16.303Z,100039.47
2023-01-10T03:34:43.874Z,100044.56
2023-01-10T03:37:20.649Z,100053.19
2023-01-10T03:40:07.794Z,100069.22
2023-01-10T03:43:21.973Z,100080.94
2023-01-10T03:46:06.268Z,100080.72
2023-01-10T03:48:39.433Z,100077.03
2023-01-10T03:51:07.366Z,100083.03
2023-01-10T03:53:37.618Z,100097.56
2023-01-10T03:56:05.345Z,100093.84
2023-01-10T03:58:32.376Z,100121.00
2023-01-10T04:00:59.524Z,100094.28
2023-01-10T04:03:26.578Z,100101.91
2023-01-10T04:05:53.590Z,100101.81
2023-01-10T04:08:20.599Z,100105.94
2023-01-10T04:10:50.296Z,100114.41
2023-01-10T04:13:17.424Z,100130.03
2023-01-10T04:15:44.383Z,100127.47
2023-01-10T04:18:13.035Z,100142.31
2023-01-10T04:20:40.262Z,100147.63
2023-01-10T04:23:07.245Z,100151.44
2023-01-10T04:25:34.297Z,100144.50
2023-01-10T04:28:01.343Z,100148.50
2023-01-10T04:30:28.477Z,100129.97
2023-01-10T04:33:52.824Z,100141.66
2023-01-10T04:36:19.864Z,100126.53
2023-01-10T04:38:46.805Z,100143.19
2023-01-10T04:41:13.887Z,100142.22
2023-01-10T04:43:40.919Z,100153.09
2023-01-10T04:46:07.961Z,100160.97
2023-01-10T04:48:36.564Z,100167.06
2023-01-10T04:51:04.792Z,100175.94
2023-01-10T04:53:31.730Z,100181.16
2023-01-10T04:56:07.920Z,100185.59
2023-01-10T04:58:37.677Z,100201.56
2023-01-10T05:01:25.202Z,100197.03
2023-01-10T05:03:55.418Z,100191.84
2023-01-10T05:06:34.275Z,100194.03
2023-01-10T05:09:01.258Z,100210.69
2023-01-10T05:11:28.266Z,100197.59
2023-01-10T05:13:55.631Z,100199.22
2023-01-10T05:16:22.700Z,100201.78
2023-01-10T05:18:50.783Z,100201.84
2023-01-10T05:21:18.355Z,100204.47
2023-01-10T05:23:45.424Z,100199.28
2023-01-10T05:26:23.544Z,100199.34
2023-01-10T05:28:50.738Z,100202.75
2023-01-10T05:31:20.419Z,100199.06
2023-01-10T05:33:50.533Z,100199.97
2023-01-10T05:36:19.007Z,100202.47
2023-01-10T05:38:46.494Z,100212.31
2023-01-10T05:41:13.972Z,100212.63
2023-01-10T05:43:41.750Z,100192.38
2023-01-10T05:46:09.548Z,100192.53
2023-01-10T05:48:36.620Z,100195.16
2023-01-10T05:51:04.169Z,100191.56
2023-01-10T05:53:31.338Z,100195.06
2023-01-10T05:56:01.393Z,100206.25
2023-01-10T05:58:29.780Z,100195.56
2023-01-10T06:00:57.849Z,100200.53
2023-01-10T06:03:26.767Z,100220.72
2023-01-10T06:05:57.383Z,100215.38
2023-01-10T06:08:24.732Z,100205.69
2023-01-10T06:10:52.092Z,100215.38
2023-01-10T06:13:19.191Z,100225.94
2023-01-10T06:15:46.191Z,100223.22
2023-01-10T06:18:13.402Z,100225.03
2023-01-10T06:20:41.834Z,100228.63
2023-01-10T06:23:09.309Z,100245.31
2023-01-10T06:25:40.530Z,100225.09
2023-01-10T06:28:09.673Z,100219.41
2023-01-10T06:30:36.940Z,100217.47
2023-01-10T06:33:06.648Z,100225.22
2023-01-10T06:35:34.975Z,100238.53
2023-01-10T06:38:02.098Z,100256.16
2023-01-10T06:40:29.906Z,100247.22
2023-01-10T06:42:57.117Z,100255.00
2023-01-10T06:45:24.268Z,100264.78
2023-01-10T06:47:51.263Z,100262.81
2023-01-10T06:50:18.389Z,100253.84
2023-01-10T06:52:45.504Z,100251.00
2023-01-10T06:55:12.763Z,100241.16
2023-01-10T06:57:39.776Z,100233.66
2023-01-10T07:00:09.356Z,100258.56
2023-01-10T07:02:37.043Z,100264.25
2023-01-10T07:05:04.298Z,100303.78
2023-01-10T07:07:31.334Z,100312.44
2023-01-10T07:09:59.844Z,100336.75
2023-01-10T07:12:26.842Z,100339.84
2023-01-10T07:14:53.943Z,100359.41
2023-01-10T07:17:21.345Z,100356.94
2023-01-10T07:19:48.510Z,100355.97
2023-01-10T07:22:15.599Z,100356.09
2023-01-10T07:24:43.067Z,100348.25
2023-01-10T07:27:10.037Z,100344.69
2023-01-10T07:29:37.021Z,100359.63
2023-01-10T07:32:04.311Z,100349.00
2023-01-10T07:34:31.391Z,100359.41
2023-01-10T07:36:58.367Z,100376.94
2023-01-10T07:39:25.293Z,100379.34
2023-01-10T07:41:53.123Z,100360.78
2023-01-10T07:44:20.046Z,100362.38
2023-01-10T07:46:47.010Z,100359.00
2023-01-10T07:49:14.324Z,100353.13
2023-01-10T07:51:41.421Z,100344.50
2023-01-10T07:54:08.411Z,100347.22
2023-01-10T07:56:35.356Z,100342.84
2023-01-10T07:59:02.467Z,100341.84
2023-01-10T08:01:30.390Z,100348.09
2023-01-10T08:03:58.818Z,100350.63
2023-01-10T08:06:25.882Z,100344.81
2023-01-10T08:08:53.100Z,100329.09
2023-01-10T08:11:20.408Z,100319.50
2023-01-10T08:13:47.527Z,100322.00
2023-01-10T08:16:15.771Z,100334.94
2023-01-10T08:18:43.406Z,100358.50
2023-01-10T08:21:10.909Z,100383.34
2023-01-10T08:23:38.295Z,100411.09
2023-01-10T08:26:06.470Z,100416.88
2023-01-10T08:28:33.577Z,100443.25
2023-01-10T08:31:07.324Z,100448.53
2023-01-10T08:33:34.531Z,100449.25
2023-01-10T08:36:01.586Z,100459.53
2023-01-10T08:38:29.348Z,100474.16
2023-01-10T08:40:59.272Z,100482.06
2023-01-10T08:43:26.252Z,100488.97
2023-01-10T08:45:53.262Z,100493.41
2023-01-10T08:48:20.393Z,100496.03
2023-01-10T08:50:47.447Z,100502.34
2023-01-10T08:53:14.623Z,100512.06
2023-01-10T08:55:41.685Z,100510.44
2023-01-10T08:58:10.234Z,100519.41
2023-01-10T09:00:37.421Z,100518.59
2023-01-10T09:03:07.627Z,100523.09
2023-01-10T09:05:34.981Z,100520.44
2023-01-10T09:08:04.339Z,100519.81
2023-01-10T09:10:31.471Z,100516.69
2023-01-10T09:13:01.737Z,100510.63
2023-01-10T09:15:36.211Z,100512.41
2023-01-10T09:18:07.019Z,100511.56
2023-01-10T09:20:36.394Z,100516.94
2023-01-10T09:23:20.200Z,100502.13
2023-01-10T09:25:52.518Z,100495.06
2023-01-10T09:28:20.874Z,100501.13
2023-01-10T09:30:48.348Z,100521.16
2023-01-10T09:33:15.594Z,100536.03
2023-01-10T09:35:43.725Z,100535.22
2023-01-10T09:38:17.354Z,100533.59
2023-01-10T09:41:08.941Z,100547.78
2023-01-10T09:44:10.858Z,100545.47
2023-01-10T09:47:23.138Z,100546.63
2023-01-10T09:50:15.671Z,100527.47
2023-01-10T09:52:53.603Z,100538.97
2023-01-10T09:55:25.162Z,100532.94
2023-01-10T09:57:55.414Z,100536.66
2023-01-10T10:00:41.385Z,100544.69
2023-01-10T10:03:56.573Z,100544.91
2023-01-10T10:06:24.700Z,100531.88
2023-01-10T10:08:53.404Z,100520.56
2023-01-10T10:11:26.424Z,100505.69
2023-01-10T10:14:11.913Z,100490.94
2023-01-10T10:16:53.973Z,100470.00
2023-01-10T10:19:34.817Z,100452.53
2023-01-10T10:22:41.936Z,100426.22
2023-01-10T10:25:47.255Z,100413.94
2023-01-10T10:28:31.675Z,100407.75
2023-01-10T10:31:38.573Z,100399.81
2023-01-10T10:34:36.695Z,100413.25
2023-01-10T10:37:13.137Z,100395.59
2023-01-10T10:39:53.660Z,100387.59
2023-01-10T10:42:21.262Z,100391.31
2023-01-10T10:45:00.278Z,100409.16
2023-01-10T10:47:35.326Z,100418.09
2023-01-10T10:50:14.534Z,100417.22
2023-01-10T10:52:43.515Z,100382.88
2023-01-10T10:55:28.279Z,100382.09
2023-01-10T10:58:00.429Z,100370.75
2023-01-10T11:00:29.447Z,100368.13
2023-01-10T11:03:24.730Z,100379.84
2023-01-10T11:05:53.091Z,100384.41
2023-01-10T11:08:22.069Z,100386.16
2023-01-10T11:10:59.993Z,100357.97
2023-01-10T11:13:36.066Z,100365.00
2023-01-10T11:16:06.317Z,100327.19
2023-01-10T11:18:34.516Z,100315.78
2023-01-10T11:21:11.810Z,100293.78
2023-01-10T11:23:53.763Z,100314.06
2023-01-10T11:26:41.190Z,100329.13
2023-01-10T11:29:27.919Z,100380.94
2023-01-10T11:31:57.227Z,100381.50
2023-01-10T11:34:33.659Z,100361.09
2023-01-10T11:37:03.717Z,100332.72
2023-01-10T11:39:33.015Z,100331.75
2023-01-10T11:42:33.058Z,100321.19
2023-01-10T11:45:34.092Z,100328.06
2023-01-10T11:48:32.942Z,100317.41
2023-01-10T11:51:19.042Z,100301.53
2023-01-10T11:53:47.475Z,100291.84
2023-01-10T11:56:29.070Z,100304.78
2023-01-10T11:58:57.706Z,100316.28
2023-01-10T12:01:44.564Z,100304.03
2023-01-10T12:04:16.778Z,100308.50
2023-01-10T12:06:53.912Z,100304.94
2023-01-10T12:09:39.881Z,100288.97
2023-01-10T12:12:28.272Z,100269.81
2023-01-10T12:15:02.453Z,100267.31
2023-01-10T12:17:34.287Z,100263.13
2023-01-10T12:20:04.827Z,100253.47
2023-01-10T12:22:41.359Z,100243.59
2023-01-10T12:25:38.938Z,100259.47
2023-01-10T12:28:25.629Z,100263.19
2023-01-10T12:30:55.856Z,100286.28
2023-01-10T12:33:33.279Z,100248.22
2023-01-10T12:36:13.211Z,100257.97
2023-01-10T12:39:04.088Z,100287.81
2023-01-10T12:42:01.466Z,100295.44
2023-01-10T12:44:44.592Z,100305.88
2023-01-10T12:47:59.468Z,100296.06
2023-01-10T12:50:36.058Z,100296.03
2023-01-10T12:53:32.666Z,100305.63
2023-01-10T12:56:05.994Z,100288.84
2023-01-10T12:58:48.419Z,100276.63
2023-01-10T13:01:20.655Z,100291.66
2023-01-10T13:03:55.766Z,100266.13
2023-01-10T13:06:33.210Z,100263.66
2023-01-10T13:09:07.252Z,100243.44
2023-01-10T13:11:48.037Z,100227.75
2023-01-10T13:14:19.197Z,100226.88
2023-01-10T13:16:53.452Z,100251.53
2023-01-10T13:19:26.435Z,100241.88
2023-01-10T13:22:23.277Z,100231.38
2023-01-10T13:24:59.598Z,100201.47
2023-01-10T13:27:32.871Z,100202.41
2023-01-10T13:30:00.664Z,100198.00
2023-01-10T13:32:36.425Z,100231.31
2023-01-10T13:35:15.352Z,100222.50
2023-01-10T13:37:45.367Z,100224.25
2023-01-10T13:40:26.286Z,100220.72
2023-01-10T13:43:39.195Z,100249.69
2023-01-10T13:46:18.290Z,100254.88
2023-01-10T13:49:14.126Z,100240.03
2023-01-10T13:52:39.833Z,100243.56
2023-01-10T13:55:53.782Z,100223.38
2023-01-10T13:58:42.278Z,100215.50
2023-01-10T14:01:58.039Z,100208.41
2023-01-10T14:04:32.074Z,100189.13
2023-01-10T14:07:23.194Z,100188.25
2023-01-10T14:09:52.119Z,100194.41
2023-01-10T14:12:21.198Z,100199.66
2023-01-10T14:15:29.927Z,100193.44
2023-01-10T14:18:27.380Z,100164.56
2023-01-10T14:21:08.539Z,100151.31
2023-01-10T14:23:44.180Z,100139.06
2023-01-10T14:26:38.435Z,100131.19
2023-01-10T14:29:14.674Z,100117.09
2023-01-10T14:31:53.345Z,100112.72
2023-01-10T14:34:27.755Z,100114.44
2023-01-10T14:37:06.409Z,100124.00
2023-01-10T14:39:33.944Z,100112.63
2023-01-10T14:42:05.902Z,100111.75
2023-01-10T14:45:09.036Z,100123.94
2023-01-10T14:47:38.507Z,100121.31
2023-01-10T14:50:06.494Z,100123.88
2023-01-10T14:52:34.214Z,100108.13
2023-01-10T14:55:21.585Z,100114.22
2023-01-10T14:58:01.521Z,100108.13
2023-01-10T15:00:34.604Z,100113.31
2023-01-10T15:03:04.125Z,100109.72
2023-01-10T15:05:38.035Z,100108.81
2023-01-10T15:08:22.145Z,100101.72
2023-01-10T15:10:55.157Z,100110.44
2023-01-10T15:13:28.246Z,100122.59
2023-01-10T15:15:56.670Z,100132.22
2023-01-10T15:18:46.051Z,100125.03
2023-01-10T15:21:14.959Z,100122.38
2023-01-10T15:23:45.046Z,100124.09
2023-01-10T15:26:30.294Z,100138.03
2023-01-10T15:29:18.470Z,100134.41
2023-01-10T15:31:45.602Z,100130.03
2023-01-10T15:34:20.725Z,100127.16
2023-01-10T15:36:55.269Z,100130.59
2023-01-10T15:39:26.571Z,100133.13
2023-01-10T15:42:06.542Z,100132.25
2023-01-10T15:44:52.349Z,100134.84
2023-01-10T15:47:37.926Z,100123.50
2023-01-10T15:50:23.590Z,100119.13
2023-01-10T15:52:54.162Z,100107.56
2023-01-10T15:55:45.486Z,100118.25
2023-01-10T15:58:36.090Z,100098.06
2023-01-10T16:01:07.096Z,100099.72
2023-01-10T16:03:39.668Z,100105.88
2023-01-10T16:06:12.490Z,100098.81
2023-01-10T16:08:41.516Z,100089.22
2023-01-10T16:11:38.636Z,100081.28
2023-01-10T16:14:05.715Z,100072.53
2023-01-10T16:16:32.972Z,100056.72
2023-01-10T16:19:02.695Z,100047.22
2023-01-10T16:21:44.542Z,100038.41
2023-01-10T16:24:36.231Z,100033.19
2023-01-10T16:27:06.035Z,100033.97
2023-01-10T16:29:34.208Z,100026.03
2023-01-10T16:32:01.171Z,100028.69
2023-01-10T16:34:28.192Z,100026.97
2023-01-10T16:36:55.198Z,100026.06
2023-01-10T16:39:23.780Z,100025.16
2023-01-10T16:42:09.040Z,100028.56
2023-01-10T16:44:36.003Z,100029.31
2023-01-10T16:47:06.600Z,100030.28
2023-01-10T16:49:34.015Z,100038.16
2023-01-10T16:52:07.029Z,100045.06
2023-01-10T16:54:36.500Z,100051.19
2023-01-10T16:57:03.445Z,100055.56
2023-01-10T16:59:30.493Z,100055.66
2023-01-10T17:01:58.875Z,100052.97
2023-01-10T17:04:31.573Z,100052.06
2023-01-10T17:06:59.467Z,100055.66
2023-01-10T17:09:31.197Z,100046.06
2023-01-10T17:12:12.836Z,100040.78
2023-01-10T17:14:39.960Z,100038.16
2023-01-10T17:17:06.934Z,100040.78
2023-01-10T17:19:35.142Z,100033.78
2023-01-10T17:22:02.266Z,100032.88
2023-01-10T17:24:30.075Z,100025.81
2023-01-10T17:26:57.274Z,100033.81
2023-01-10T17:29:24.355Z,100025.91
2023-01-10T17:31:51.525Z,100028.63
2023-01-10T17:34:18.701Z,100019.13
2023-01-10T17:36:45.768Z,100010.38
2023-01-10T17:39:12.996Z,100003.38
2023-01-10T17:41:40.203Z,99992.88
2023-01-10T17:44:07.346Z,99987.63
2023-01-10T17:46:34.481Z,99984.94
2023-01-10T17:49:02.974Z,99975.31
2023-01-10T17:51:30.217Z,99975.28
2023-01-10T17:53:57.437Z,99959.53
2023-01-10T17:56:24.958Z,99963.88
2023-01-10T17:58:53.145Z,99967.34
2023-01-10T18:01:25.325Z,99964.72
2023-01-10T18:03:53.455Z,99958.63
2023-01-10T18:06:25.328Z,99960.38
2023-01-10T18:08:53.769Z,99956.06
2023-01-10T18:11:23.466Z,99945.56
2023-01-10T18:13:50.579Z,99937.75
2023-01-10T18:16:17.878Z,99938.56
2023-01-10T18:18:45.122Z,99932.44
2023-01-10T18:21:20.567Z,99929.81
2023-01-10T18:23:50.001Z,99923.63
2023-01-10T18:26:17.482Z,99919.22
2023-01-10T18:28:47.233Z,99914.88
2023-01-10T18:31:17.108Z,99910.44
2023-01-10T18:33:48.554Z,99918.25
2023-01-10T18:36:21.328Z,99913.19
2023-01-10T18:38:49.251Z,99902.66
2023-01-10T18:41:17.873Z,99913.94
2023-01-10T18:43:45.488Z,99907.00
2023-01-10T18:46:22.038Z,99896.47
2023-01-10T18:48:52.395Z,99896.59
2023-01-10T18:51:19.577Z,99888.72
2023-01-10T18:53:47.757Z,99867.75
2023-01-10T18:56:14.984Z,99862.50
2023-01-10T18:58:43.008Z,99861.56
2023-01-10T19:01:19.255Z,99851.19
2023-01-10T19:03:46.862Z,99833.72
2023-01-10T19:06:16.861Z,99824.25
2023-01-10T19:08:46.061Z,99805.88
2023-01-10T19:11:16.480Z,99796.16
2023-01-10T19:13:45.958Z,99790.88
2023-01-10T19:16:15.790Z,99792.63
2023-01-10T19:18:43.921Z,99787.38
2023-01-10T19:21:20.097Z,99802.19
2023-01-10T19:23:51.487Z,99805.72
2023-01-10T19:26:18.789Z,99808.31
2023-01-10T19:28:46.118Z,99802.16
2023-01-10T19:31:23.305Z,99812.56
2023-01-10T19:33:51.332Z,99819.59
2023-01-10T19:36:22.053Z,99824.00
2023-01-10T19:38:54.103Z,99823.16
2023-01-10T19:41:21.258Z,99821.44
2023-01-10T19:43:48.526Z,99831.88
2023-01-10T19:46:15.585Z,99834.50
2023-01-10T19:48:42.752Z,99828.41
2023-01-10T19:51:12.574Z,99831.94
2023-01-10T19:53:44.335Z,99820.63
2023-01-10T19:58:47.077Z,99822.31
2023-01-10T20:01:21.021Z,99815.38
2023-01-10T20:03:48.418Z,99811.88
2023-01-10T20:06:26.798Z,99821.47
2023-01-10T20:08:54.917Z,99817.16
2023-01-10T20:11:25.220Z,99814.47
2023-01-10T20:13:52.995Z,99827.66
2023-01-10T20:16:23.272Z,99833.75
2023-01-10T20:18:51.647Z,99837.28
2023-01-10T20:21:20.157Z,99839.00
2023-01-10T20:23:47.762Z,99838.16
2023-01-10T20:26:22.193Z,99834.66
2023-01-10T20:28:50.678Z,99842.47
2023-01-10T20:31:23.968Z,99856.47
2023-01-10T20:33:51.389Z,99850.44
2023-01-10T20:36:23.040Z,99854.78
2023-01-10T20:38:50.977Z,99864.53
2023-01-10T20:41:29.995Z,99863.56
2023-01-10T20:43:58.438Z,99864.56
2023-01-10T20:46:31.737Z,99864.59
2023-01-10T20:49:02.179Z,99851.44
2023-01-10T20:51:33.354Z,99865.34
2023-01-10T20:54:00.611Z,99862.75
2023-01-10T20:56:30.537Z,99870.66
2023-01-10T20:58:58.662Z,99871.44
2023-01-10T21:01:35.798Z,99881.03
2023-01-10T21:04:05.834Z,99894.13
2023-01-10T21:06:33.508Z,99908.97
2023-01-10T21:09:00.778Z,99911.47
2023-01-10T21:11:28.220Z,99921.94
2023-01-10T21:13:55.302Z,99929.72
2023-01-10T21:16:22.752Z,99940.00
2023-01-10T21:18:50.840Z,99960.84
2023-01-10T21:21:22.617Z,99962.41
2023-01-10T21:23:49.891Z,99974.50
2023-01-10T21:26:17.306Z,99975.25
2023-01-10T21:28:47.351Z,99989.25
2023-01-10T21:31:20.650Z,99997.97
2023-01-10T21:33:49.300Z,99999.66
2023-01-10T21:36:17.350Z,100013.63
2023-01-10T21:38:46.783Z,100011.78
2023-01-10T21:41:36.004Z,100011.75
2023-01-10T21:44:04.723Z,100020.41
2023-01-10T21:46:31.876Z,100026.50
2023-01-10T21:48:59.135Z,100031.69
2023-01-10T21:51:26.084Z,100035.22
2023-01-10T21:53:53.071Z,100042.22
2023-01-10T21:56:20.056Z,100041.34
2023-01-10T21:58:48.168Z,100041.34
2023-01-10T22:01:15.706Z,100051.00
2023-01-10T22:03:45.575Z,100044.00
2023-01-10T22:06:12.938Z,100048.34
2023-01-10T22:08:39.940Z,100046.59
2023-01-10T22:11:08.137Z,100039.56
2023-01-10T22:13:36.806Z,100036.09
2023-01-10T22:16:04.144Z,100034.28
2023-01-10T22:18:31.979Z,100032.56
2023-01-10T22:20:59.721Z,100037.81
2023-01-10T22:23:29.360Z,100033.50
2023-01-10T22:26:05.990Z,100032.66
2023-01-10T22:28:33.732Z,100023.97
2023-01-10T22:31:02.639Z,100013.44
2023-01-10T22:33:35.757Z,100014.34
2023-01-10T22:36:14.408Z,100012.63
2023-01-10T22:38:41.811Z,100002.22
2023-01-10T22:41:15.886Z,100004.84
2023-01-10T22:43:43.075Z,99998.75
2023-01-10T22:46:11.233Z,100004.06
2023-01-10T22:48:38.718Z,99998.84
2023-01-10T22:51:05.989Z,100003.19
2023-01-10T22:53:33.381Z,99993.66
2023-01-10T22:56:05.984Z,99998.94
2023-01-10T22:58:33.474Z,99991.16
2023-01-10T23:01:04.737Z,99986.84
2023-01-10T23:03:31.701Z,99986.91
2023-01-10T23:05:59.290Z,99984.28
2023-01-10T23:08:27.822Z,99974.72
2023-01-10T23:10:55.020Z,99980.88
2023-01-10T23:13:23.820Z,99987.97
2023-01-10T23:16:00.849Z,99982.78
2023-01-10T23:18:28.887Z,99979.34
2023-01-10T23:20:56.845Z,99982.00
2023-01-10T23:23:25.030Z,99965.34
2023-01-10T23:26:02.114Z,99956.63
2023-01-10T23:28:34.193Z,99954.16
2023-01-10T23:31:02.067Z,99953.31
2023-01-10T23:33:29.321Z,99962.94
2023-01-10T23:35:56.385Z,99949.88
2023-01-10T23:38:23.561Z,99955.16
2023-01-10T23:40:50.625Z,99953.50
2023-01-10T23:43:17.844Z,99937.78
2023-01-10T23:45:45.477Z,99927.31
2023-01-10T23:48:13.100Z,99930.00
2023-01-10T23:50:40.224Z,99916.06
2023-01-10T23:53:07.498Z,99908.19
2023-01-10T23:55:34.956Z,99908.25
2023-01-10T23:58:01.905Z,99889.06
